DLH459 KSFO-EDDM
Flight info
| Callsign | DLH459 |
|---|---|
| Flight time | 10h 43m |
| Altitude | 35000 |
| Route | SNTNA2 ORRCA DCT FMG J7 GTF DCT ITREK Q827 YYQ DCT 6280N/N0477F370 DCT YFB/M081F370 DCT AVPUT DCT GH/M068F270 UT599 LODNO/M081F370 DCT SOSIT DCT GIRUG DCT 6320N/M082F390 DCT RATSU/N0468F390 DCT DEVBI DCT WIK DCT LESNI DCT RIVOT DCT UPNAL DCT ROLUM DCT TOPPA DCT AMGOD DCT PETIK P62 PAM/N0375F230 Z739 MISGO DCT DIXAT/N0457F390 T149 LIPMI DCT DOJOH DCT DODEN DCT BOMBI/N0436F330 T104 HAREM/N0394F270 T104 ROKIL ROKIL1A |
| Aircraft | A388/J-SADE2E3GHIJ3J4J5LM1OP2RWXYZ/LB1D1 |
Departure
| Time | 2026-04-30 21:34 |
|---|---|
| Airport | San Francisco International Airport (KSFO) |
Arrival
| Time | 2026-05-01 08:17 |
|---|---|
| Airport | Munich Airport (EDDM) |
| Time | Latitude | Longitude | Altitude | Speed | Heading |
|---|---|---|---|---|---|
| 2026-04-30 20:35 | 37.61286 | -122.38851 | 23 ft | 0 kts | 296° |
| 2026-04-30 21:15 | 37.61284 | -122.38846 | 23 ft | 1 kts | 296° |
| 2026-04-30 21:15 | 37.61281 | -122.38838 | 23 ft | 1 kts | 296° |
| 2026-04-30 21:16 | 37.61277 | -122.38830 | 23 ft | 1 kts | 296° |
| 2026-04-30 21:16 | 37.61274 | -122.38821 | 28 ft | 2 kts | 296° |
| 2026-04-30 21:16 | 37.61268 | -122.38806 | 28 ft | 2 kts | 292° |
| 2026-04-30 21:16 | 37.61267 | -122.38790 | 29 ft | 2 kts | 270° |
| 2026-04-30 21:17 | 37.61270 | -122.38774 | 29 ft | 2 kts | 249° |
| 2026-04-30 21:17 | 37.61278 | -122.38761 | 29 ft | 2 kts | 227° |
| 2026-04-30 21:17 | 37.61288 | -122.38751 | 29 ft | 2 kts | 217° |
| 2026-04-30 21:17 | 37.61292 | -122.38747 | 29 ft | 0 kts | 217° |
| 2026-04-30 21:19 | 37.61279 | -122.38759 | 29 ft | 4 kts | 216° |
| 2026-04-30 21:19 | 37.61247 | -122.38784 | 29 ft | 7 kts | 206° |
| 2026-04-30 21:19 | 37.61199 | -122.38813 | 26 ft | 8 kts | 207° |
| 2026-04-30 21:20 | 37.61146 | -122.38849 | 25 ft | 9 kts | 208° |
| 2026-04-30 21:20 | 37.61135 | -122.38856 | 27 ft | 3 kts | 208° |
| 2026-04-30 21:20 | 37.61106 | -122.38876 | 26 ft | 7 kts | 207° |
| 2026-04-30 21:20 | 37.61050 | -122.38882 | 26 ft | 11 kts | 159° |
| 2026-04-30 21:21 | 37.60996 | -122.38812 | 25 ft | 13 kts | 125° |
| 2026-04-30 21:21 | 37.60947 | -122.38697 | 24 ft | 17 kts | 114° |
| 2026-04-30 21:21 | 37.60926 | -122.38638 | 24 ft | 3 kts | 116° |
| 2026-04-30 21:22 | 37.60896 | -122.38561 | 27 ft | 13 kts | 114° |
| 2026-04-30 21:22 | 37.60763 | -122.38220 | 29 ft | 14 kts | 166° |
| 2026-04-30 21:23 | 37.60679 | -122.38161 | 30 ft | 14 kts | 128° |
| 2026-04-30 21:23 | 37.60627 | -122.38047 | 31 ft | 17 kts | 118° |
| 2026-04-30 21:23 | 37.60674 | -122.37890 | 27 ft | 11 kts | 30° |
| 2026-04-30 21:24 | 37.60753 | -122.37834 | 28 ft | 13 kts | 29° |
| 2026-04-30 21:24 | 37.60834 | -122.37779 | 28 ft | 14 kts | 27° |
| 2026-04-30 21:24 | 37.60926 | -122.37719 | 31 ft | 16 kts | 28° |
| 2026-04-30 21:24 | 37.61022 | -122.37656 | 31 ft | 15 kts | 27° |
| 2026-04-30 21:25 | 37.61215 | -122.37528 | 29 ft | 16 kts | 28° |
| 2026-04-30 21:25 | 37.61304 | -122.37467 | 30 ft | 14 kts | 28° |
| 2026-04-30 21:25 | 37.61388 | -122.37410 | 27 ft | 14 kts | 28° |
| 2026-04-30 21:26 | 37.61537 | -122.37277 | 28 ft | 14 kts | 63° |
| 2026-04-30 21:26 | 37.61556 | -122.37147 | 27 ft | 17 kts | 102° |
| 2026-04-30 21:27 | 37.61457 | -122.36918 | 27 ft | 16 kts | 128° |
| 2026-04-30 21:27 | 37.61375 | -122.36791 | 30 ft | 21 kts | 123° |
| 2026-04-30 21:27 | 37.61312 | -122.36648 | 25 ft | 17 kts | 118° |
| 2026-04-30 21:28 | 37.61261 | -122.36530 | 26 ft | 10 kts | 118° |
| 2026-04-30 21:28 | 37.61224 | -122.36443 | 27 ft | 12 kts | 118° |
| 2026-04-30 21:28 | 37.61142 | -122.36252 | 27 ft | 8 kts | 118° |
| 2026-04-30 21:29 | 37.61111 | -122.36179 | 31 ft | 11 kts | 118° |
| 2026-04-30 21:29 | 37.61087 | -122.35920 | 26 ft | 0 kts | 31° |
| 2026-04-30 21:31 | 37.61090 | -122.35917 | 26 ft | 2 kts | 30° |
| 2026-04-30 21:31 | 37.61152 | -122.35888 | 27 ft | 6 kts | 357° |
| 2026-04-30 21:32 | 37.61210 | -122.35941 | 32 ft | 1 kts | 297° |
| 2026-04-30 21:32 | 37.61211 | -122.35944 | 31 ft | 2 kts | 297° |
| 2026-04-30 21:32 | 37.61231 | -122.35992 | 27 ft | 19 kts | 297° |
| 2026-04-30 21:33 | 37.61411 | -122.36417 | 23 ft | 90 kts | 298° |
| 2026-04-30 21:33 | 37.62307 | -122.38516 | 58 ft | 167 kts | 298° |
| 2026-04-30 21:33 | 37.62860 | -122.39810 | 427 ft | 167 kts | 299° |
| 2026-04-30 21:34 | 37.63427 | -122.41090 | 831 ft | 168 kts | 298° |
| 2026-04-30 21:34 | 37.64678 | -122.43722 | 1556 ft | 180 kts | 300° |
| 2026-04-30 21:34 | 37.65331 | -122.45103 | 1840 ft | 189 kts | 300° |
| 2026-04-30 21:35 | 37.66021 | -122.46593 | 1868 ft | 213 kts | 299° |
| 2026-04-30 21:35 | 37.66944 | -122.48184 | 2070 ft | 236 kts | 313° |
| 2026-04-30 21:35 | 37.67967 | -122.49898 | 2294 ft | 253 kts | 298° |
| 2026-04-30 21:35 | 37.68992 | -122.51736 | 2530 ft | 260 kts | 319° |
| 2026-04-30 21:36 | 37.70563 | -122.52798 | 2788 ft | 261 kts | 346° |
| 2026-04-30 21:36 | 37.72387 | -122.53011 | 3014 ft | 263 kts | 0° |
| 2026-04-30 21:37 | 37.77870 | -122.52797 | 2995 ft | 261 kts | 1° |
| 2026-04-30 21:37 | 37.79640 | -122.52374 | 2999 ft | 261 kts | 25° |
| 2026-04-30 21:37 | 37.81064 | -122.50969 | 2993 ft | 263 kts | 52° |
| 2026-04-30 21:37 | 37.81880 | -122.48948 | 2998 ft | 263 kts | 67° |
| 2026-04-30 21:38 | 37.82587 | -122.46828 | 2996 ft | 263 kts | 66° |
| 2026-04-30 21:38 | 37.83324 | -122.44714 | 2995 ft | 263 kts | 64° |
| 2026-04-30 21:38 | 37.84262 | -122.42723 | 3085 ft | 265 kts | 52° |
| 2026-04-30 21:38 | 37.85484 | -122.40973 | 3587 ft | 265 kts | 47° |
| 2026-04-30 21:39 | 37.86716 | -122.39242 | 4343 ft | 265 kts | 48° |
| 2026-04-30 21:39 | 37.87941 | -122.37474 | 5032 ft | 268 kts | 48° |
| 2026-04-30 21:39 | 37.89169 | -122.35693 | 5671 ft | 272 kts | 48° |
| 2026-04-30 21:39 | 37.90428 | -122.33871 | 6344 ft | 276 kts | 49° |
| 2026-04-30 21:40 | 37.91695 | -122.32040 | 7000 ft | 278 kts | 49° |
| 2026-04-30 21:40 | 37.92957 | -122.30216 | 7668 ft | 279 kts | 48° |
| 2026-04-30 21:40 | 37.94242 | -122.28361 | 8343 ft | 281 kts | 48° |
| 2026-04-30 21:40 | 37.95540 | -122.26487 | 9005 ft | 284 kts | 48° |
| 2026-04-30 21:41 | 37.96843 | -122.24605 | 9705 ft | 285 kts | 49° |
| 2026-04-30 21:41 | 37.98165 | -122.22693 | 10242 ft | 292 kts | 48° |
| 2026-04-30 21:41 | 37.99545 | -122.20698 | 10406 ft | 311 kts | 48° |
| 2026-04-30 21:41 | 38.01011 | -122.18579 | 10556 ft | 328 kts | 48° |
| 2026-04-30 21:42 | 38.02540 | -122.16364 | 10899 ft | 337 kts | 48° |
| 2026-04-30 21:42 | 38.04089 | -122.14116 | 11459 ft | 339 kts | 47° |
| 2026-04-30 21:42 | 38.05639 | -122.11865 | 12037 ft | 342 kts | 47° |
| 2026-04-30 21:42 | 38.07216 | -122.09575 | 12560 ft | 345 kts | 47° |
| 2026-04-30 21:43 | 38.08805 | -122.07269 | 13106 ft | 348 kts | 47° |
| 2026-04-30 21:43 | 38.09862 | -122.05734 | 13430 ft | 350 kts | 47° |
| 2026-04-30 21:43 | 38.12013 | -122.02606 | 14078 ft | 354 kts | 46° |
| 2026-04-30 21:43 | 38.13643 | -122.00234 | 14550 ft | 357 kts | 46° |
| 2026-04-30 21:44 | 38.15280 | -121.97849 | 15039 ft | 360 kts | 46° |
| 2026-04-30 21:44 | 38.16930 | -121.95443 | 15516 ft | 362 kts | 46° |
| 2026-04-30 21:44 | 38.18588 | -121.93024 | 15969 ft | 365 kts | 46° |
| 2026-04-30 21:44 | 38.20261 | -121.90581 | 16448 ft | 368 kts | 46° |
| 2026-04-30 21:45 | 38.21944 | -121.88121 | 16909 ft | 370 kts | 46° |
| 2026-04-30 21:45 | 38.23648 | -121.85630 | 17366 ft | 373 kts | 46° |
| 2026-04-30 21:45 | 38.25347 | -121.83143 | 17816 ft | 376 kts | 46° |
| 2026-04-30 21:45 | 38.27071 | -121.80618 | 18286 ft | 378 kts | 46° |
| 2026-04-30 21:46 | 38.28211 | -121.78948 | 18518 ft | 380 kts | 46° |
| 2026-04-30 21:46 | 38.29957 | -121.76387 | 18906 ft | 382 kts | 46° |
| 2026-04-30 21:46 | 38.32276 | -121.72982 | 19398 ft | 386 kts | 46° |
| 2026-04-30 21:46 | 38.34031 | -121.70404 | 19763 ft | 388 kts | 46° |
| 2026-04-30 21:47 | 38.35816 | -121.67780 | 20125 ft | 391 kts | 46° |
| 2026-04-30 21:47 | 38.37605 | -121.65145 | 20497 ft | 394 kts | 46° |
| 2026-04-30 21:47 | 38.38814 | -121.63366 | 20737 ft | 395 kts | 45° |
| 2026-04-30 21:47 | 38.41209 | -121.59835 | 21214 ft | 399 kts | 45° |
| 2026-04-30 21:48 | 38.42412 | -121.58061 | 21452 ft | 401 kts | 45° |
| 2026-04-30 21:48 | 38.44243 | -121.55351 | 21802 ft | 403 kts | 46° |
| 2026-04-30 21:48 | 38.45949 | -121.52489 | 22141 ft | 408 kts | 50° |
| 2026-04-30 21:48 | 38.47649 | -121.49585 | 22496 ft | 410 kts | 49° |
| 2026-04-30 21:49 | 38.49375 | -121.46662 | 22840 ft | 412 kts | 49° |
| 2026-04-30 21:49 | 38.51107 | -121.43733 | 23174 ft | 415 kts | 49° |
| 2026-04-30 21:49 | 38.52857 | -121.40768 | 23518 ft | 418 kts | 49° |
| 2026-04-30 21:49 | 38.54610 | -121.37791 | 23789 ft | 420 kts | 49° |
| 2026-04-30 21:50 | 38.56370 | -121.34795 | 24096 ft | 422 kts | 49° |
| 2026-04-30 21:50 | 38.58133 | -121.31793 | 24382 ft | 424 kts | 49° |
| 2026-04-30 21:50 | 38.59905 | -121.28769 | 24666 ft | 426 kts | 49° |
| 2026-04-30 21:50 | 38.61690 | -121.25721 | 24984 ft | 428 kts | 49° |
| 2026-04-30 21:51 | 38.63462 | -121.22694 | 25285 ft | 430 kts | 49° |
| 2026-04-30 21:51 | 38.65259 | -121.19620 | 25585 ft | 433 kts | 49° |
| 2026-04-30 21:51 | 38.67070 | -121.16519 | 25914 ft | 435 kts | 49° |
| 2026-04-30 21:51 | 38.68891 | -121.13400 | 26240 ft | 438 kts | 49° |
| 2026-04-30 21:52 | 38.70713 | -121.10273 | 26574 ft | 440 kts | 49° |
| 2026-04-30 21:52 | 38.72554 | -121.07113 | 26957 ft | 442 kts | 49° |
| 2026-04-30 21:52 | 38.74397 | -121.03945 | 27285 ft | 445 kts | 49° |
| 2026-04-30 21:52 | 38.76231 | -121.00790 | 27639 ft | 448 kts | 49° |
| 2026-04-30 21:53 | 38.78095 | -120.97581 | 28015 ft | 451 kts | 49° |
| 2026-04-30 21:53 | 38.79971 | -120.94348 | 28369 ft | 453 kts | 50° |
| 2026-04-30 21:53 | 38.81862 | -120.91083 | 28743 ft | 456 kts | 50° |
| 2026-04-30 21:53 | 38.83764 | -120.87798 | 29068 ft | 459 kts | 50° |
| 2026-04-30 21:54 | 38.85670 | -120.84502 | 29435 ft | 462 kts | 50° |
| 2026-04-30 21:54 | 38.87595 | -120.81172 | 29772 ft | 465 kts | 50° |
| 2026-04-30 21:54 | 38.89525 | -120.77829 | 30111 ft | 468 kts | 50° |
| 2026-04-30 21:54 | 38.91466 | -120.74462 | 30422 ft | 470 kts | 50° |
| 2026-04-30 21:55 | 38.93412 | -120.71083 | 30727 ft | 472 kts | 50° |
| 2026-04-30 21:55 | 38.95379 | -120.67663 | 31027 ft | 475 kts | 50° |
| 2026-04-30 21:55 | 38.97354 | -120.64227 | 31350 ft | 478 kts | 50° |
| 2026-04-30 21:55 | 38.99327 | -120.60789 | 31646 ft | 480 kts | 49° |
| 2026-04-30 21:56 | 39.01292 | -120.57362 | 31978 ft | 482 kts | 49° |
| 2026-04-30 21:56 | 39.03291 | -120.53873 | 32287 ft | 485 kts | 49° |
| 2026-04-30 21:56 | 39.05280 | -120.50397 | 32595 ft | 487 kts | 49° |
| 2026-04-30 21:56 | 39.07304 | -120.46857 | 32890 ft | 490 kts | 49° |
| 2026-04-30 21:57 | 39.09325 | -120.43319 | 33193 ft | 492 kts | 49° |
| 2026-04-30 21:57 | 39.11362 | -120.39748 | 33494 ft | 495 kts | 49° |
| 2026-04-30 21:57 | 39.13403 | -120.36164 | 33785 ft | 497 kts | 49° |
| 2026-04-30 21:57 | 39.15451 | -120.32565 | 34125 ft | 500 kts | 49° |
| 2026-04-30 21:58 | 39.17493 | -120.28974 | 34393 ft | 502 kts | 49° |
| 2026-04-30 21:58 | 39.19561 | -120.25333 | 34636 ft | 504 kts | 49° |
| 2026-04-30 21:58 | 39.21642 | -120.21665 | 34899 ft | 506 kts | 49° |
| 2026-04-30 21:58 | 39.23724 | -120.17990 | 35135 ft | 510 kts | 49° |
| 2026-04-30 21:59 | 39.27919 | -120.10570 | 35164 ft | 509 kts | 49° |
| 2026-04-30 22:00 | 39.34134 | -119.99547 | 35156 ft | 511 kts | 49° |
| 2026-04-30 22:00 | 39.40396 | -119.88405 | 35103 ft | 511 kts | 49° |
| 2026-04-30 22:01 | 39.44567 | -119.80962 | 35119 ft | 513 kts | 49° |
| 2026-04-30 22:01 | 39.48742 | -119.73490 | 35120 ft | 511 kts | 49° |
| 2026-04-30 22:02 | 39.53436 | -119.66719 | 35103 ft | 500 kts | 33° |
| 2026-04-30 22:02 | 39.59312 | -119.62164 | 35083 ft | 487 kts | 17° |
| 2026-04-30 22:03 | 39.65554 | -119.58716 | 35060 ft | 487 kts | 18° |
| 2026-04-30 22:03 | 39.71748 | -119.55244 | 35064 ft | 487 kts | 18° |
| 2026-04-30 22:04 | 39.77973 | -119.51756 | 35043 ft | 487 kts | 18° |
| 2026-04-30 22:05 | 39.87321 | -119.46514 | 35014 ft | 488 kts | 18° |
| 2026-04-30 22:05 | 39.93548 | -119.43013 | 35023 ft | 487 kts | 18° |
| 2026-04-30 22:06 | 39.99773 | -119.39507 | 35019 ft | 487 kts | 18° |
| 2026-04-30 22:06 | 40.09063 | -119.34261 | 35021 ft | 488 kts | 18° |
| 2026-04-30 22:07 | 40.15292 | -119.30734 | 35026 ft | 486 kts | 18° |
| 2026-04-30 22:07 | 40.21489 | -119.27217 | 35025 ft | 484 kts | 18° |
| 2026-04-30 22:08 | 40.27673 | -119.23702 | 35021 ft | 483 kts | 18° |
| 2026-04-30 22:08 | 40.33803 | -119.20212 | 35020 ft | 482 kts | 18° |
| 2026-04-30 22:09 | 40.39940 | -119.16709 | 35019 ft | 480 kts | 18° |
| 2026-04-30 22:09 | 40.46080 | -119.13198 | 35013 ft | 479 kts | 18° |
| 2026-04-30 22:10 | 40.52158 | -119.09715 | 35018 ft | 478 kts | 18° |
| 2026-04-30 22:10 | 40.58260 | -119.06214 | 35012 ft | 478 kts | 18° |
| 2026-04-30 22:11 | 40.67432 | -119.00931 | 35032 ft | 479 kts | 19° |
| 2026-04-30 22:12 | 40.73541 | -118.97408 | 35045 ft | 480 kts | 18° |
| 2026-04-30 22:12 | 40.79667 | -118.93866 | 35056 ft | 480 kts | 19° |
| 2026-04-30 22:13 | 40.85797 | -118.90314 | 35072 ft | 481 kts | 19° |
| 2026-04-30 22:13 | 40.91921 | -118.86758 | 35070 ft | 480 kts | 19° |
| 2026-04-30 22:14 | 40.98002 | -118.83221 | 35069 ft | 480 kts | 19° |
| 2026-04-30 22:14 | 41.04108 | -118.79661 | 35065 ft | 479 kts | 19° |
| 2026-04-30 22:15 | 41.10206 | -118.76099 | 35069 ft | 478 kts | 19° |
| 2026-04-30 22:15 | 41.16295 | -118.72535 | 35063 ft | 476 kts | 19° |
| 2026-04-30 22:16 | 41.22317 | -118.69003 | 35061 ft | 475 kts | 19° |
| 2026-04-30 22:17 | 41.34398 | -118.61896 | 35054 ft | 473 kts | 19° |
| 2026-04-30 22:17 | 41.43371 | -118.56599 | 35050 ft | 472 kts | 19° |
| 2026-04-30 22:18 | 41.52393 | -118.51256 | 35063 ft | 471 kts | 19° |
| 2026-04-30 22:19 | 41.61342 | -118.45941 | 35073 ft | 471 kts | 19° |
| 2026-04-30 22:20 | 41.70317 | -118.40593 | 35083 ft | 470 kts | 19° |
| 2026-04-30 22:20 | 41.79272 | -118.35242 | 35092 ft | 469 kts | 19° |
| 2026-04-30 22:21 | 41.85242 | -118.31666 | 35095 ft | 469 kts | 19° |
| 2026-04-30 22:21 | 41.91165 | -118.28110 | 35099 ft | 468 kts | 19° |
| 2026-04-30 22:22 | 41.97114 | -118.24530 | 35104 ft | 467 kts | 19° |
| 2026-04-30 22:22 | 42.03048 | -118.20953 | 35112 ft | 466 kts | 19° |
| 2026-04-30 22:23 | 42.08953 | -118.17387 | 35112 ft | 465 kts | 19° |
| 2026-04-30 22:23 | 42.14818 | -118.13836 | 35108 ft | 465 kts | 19° |
| 2026-04-30 22:24 | 42.20729 | -118.10250 | 35118 ft | 465 kts | 19° |
| 2026-04-30 22:24 | 42.26635 | -118.06660 | 35118 ft | 465 kts | 19° |
| 2026-04-30 22:25 | 42.32536 | -118.03066 | 35126 ft | 465 kts | 19° |
| 2026-04-30 22:25 | 42.38385 | -117.99496 | 35138 ft | 464 kts | 19° |
| 2026-04-30 22:26 | 42.47201 | -117.94101 | 35146 ft | 463 kts | 19° |
| 2026-04-30 22:27 | 42.53095 | -117.90486 | 35148 ft | 462 kts | 19° |
| 2026-04-30 22:27 | 42.61091 | -117.83023 | 35142 ft | 478 kts | 39° |
| 2026-04-30 22:28 | 42.67487 | -117.72468 | 35132 ft | 483 kts | 45° |
| 2026-04-30 22:29 | 42.75869 | -117.58222 | 35104 ft | 483 kts | 45° |
| 2026-04-30 22:31 | 42.90488 | -117.33122 | 35128 ft | 484 kts | 45° |
| 2026-04-30 22:32 | 43.00927 | -117.15068 | 35133 ft | 484 kts | 46° |
| 2026-04-30 22:33 | 43.11300 | -116.97018 | 35146 ft | 483 kts | 46° |
| 2026-04-30 22:35 | 43.21648 | -116.78900 | 35141 ft | 482 kts | 46° |
| 2026-04-30 22:36 | 43.31939 | -116.60772 | 35141 ft | 483 kts | 46° |
| 2026-04-30 22:37 | 43.39493 | -116.47390 | 35144 ft | 483 kts | 47° |
| 2026-04-30 22:38 | 43.47704 | -116.32779 | 35148 ft | 484 kts | 47° |
| 2026-04-30 22:39 | 43.53881 | -116.21738 | 35155 ft | 485 kts | 47° |
| 2026-04-30 22:40 | 43.67806 | -116.01866 | 35139 ft | 480 kts | 40° |
| 2026-04-30 22:41 | 43.79546 | -115.85490 | 35136 ft | 480 kts | 41° |
| 2026-04-30 22:43 | 43.93596 | -115.65764 | 35131 ft | 480 kts | 41° |
| 2026-04-30 22:44 | 44.02929 | -115.52583 | 35126 ft | 478 kts | 42° |
| 2026-04-30 22:45 | 44.16857 | -115.32797 | 35118 ft | 476 kts | 43° |
| 2026-04-30 22:47 | 44.30707 | -115.12975 | 35129 ft | 476 kts | 43° |
| 2026-04-30 22:48 | 44.39930 | -114.99698 | 35120 ft | 475 kts | 44° |
| 2026-04-30 22:49 | 44.53681 | -114.79782 | 35117 ft | 472 kts | 44° |
| 2026-04-30 22:51 | 44.67268 | -114.59962 | 35134 ft | 469 kts | 44° |
| 2026-04-30 22:52 | 44.74026 | -114.50051 | 35140 ft | 467 kts | 45° |
| 2026-04-30 22:53 | 44.82987 | -114.36854 | 35146 ft | 465 kts | 45° |
| 2026-04-30 22:53 | 44.89660 | -114.26982 | 35135 ft | 463 kts | 45° |
| 2026-04-30 22:55 | 45.00728 | -114.10544 | 35173 ft | 460 kts | 44° |
| 2026-04-30 22:56 | 45.10776 | -113.99444 | 35187 ft | 458 kts | 36° |
| 2026-04-30 22:57 | 45.23548 | -113.86064 | 35193 ft | 457 kts | 36° |
| 2026-04-30 22:58 | 45.33769 | -113.75311 | 35201 ft | 456 kts | 37° |
| 2026-04-30 22:59 | 45.48980 | -113.59215 | 35219 ft | 453 kts | 37° |
| 2026-05-01 07:23 | 52.29833 | 5.15930 | 39324 ft | 478 kts | 132° |
| 2026-05-01 07:24 | 52.23958 | 5.26748 | 39335 ft | 478 kts | 128° |
| 2026-05-01 07:24 | 52.20099 | 5.35588 | 39335 ft | 478 kts | 125° |
| 2026-05-01 07:25 | 52.15911 | 5.43978 | 39330 ft | 478 kts | 132° |
| 2026-05-01 07:25 | 52.11458 | 5.51947 | 39340 ft | 478 kts | 132° |
| 2026-05-01 07:26 | 52.06960 | 5.59941 | 39342 ft | 479 kts | 132° |
| 2026-05-01 07:26 | 52.02445 | 5.67920 | 39345 ft | 479 kts | 133° |
| 2026-05-01 07:27 | 51.97924 | 5.75877 | 39346 ft | 479 kts | 133° |
| 2026-05-01 07:27 | 51.93388 | 5.83829 | 39347 ft | 480 kts | 133° |
| 2026-05-01 07:28 | 51.88870 | 5.91717 | 39351 ft | 480 kts | 133° |
| 2026-05-01 07:28 | 51.84328 | 5.99621 | 39351 ft | 480 kts | 133° |
| 2026-05-01 07:29 | 51.79766 | 6.07533 | 39352 ft | 480 kts | 133° |
| 2026-05-01 07:29 | 51.75218 | 6.15398 | 39351 ft | 480 kts | 133° |
| 2026-05-01 07:30 | 51.70656 | 6.23261 | 39346 ft | 481 kts | 133° |
| 2026-05-01 07:30 | 51.66079 | 6.31123 | 39348 ft | 481 kts | 133° |
| 2026-05-01 07:31 | 51.61494 | 6.38976 | 39344 ft | 481 kts | 133° |
| 2026-05-01 07:32 | 51.50003 | 6.58548 | 39347 ft | 482 kts | 133° |
| 2026-05-01 07:33 | 51.43185 | 6.70088 | 39347 ft | 483 kts | 133° |
| 2026-05-01 07:33 | 51.36304 | 6.81681 | 39349 ft | 482 kts | 133° |
| 2026-05-01 07:34 | 51.29380 | 6.93292 | 39348 ft | 483 kts | 133° |
| 2026-05-01 07:35 | 51.24820 | 7.00910 | 39347 ft | 482 kts | 133° |
| 2026-05-01 07:35 | 51.20171 | 7.08650 | 39348 ft | 482 kts | 133° |
| 2026-05-01 07:36 | 51.15511 | 7.16386 | 39359 ft | 485 kts | 133° |
| 2026-05-01 07:36 | 51.10831 | 7.24132 | 39371 ft | 485 kts | 133° |
| 2026-05-01 07:37 | 51.03839 | 7.35657 | 39373 ft | 484 kts | 133° |
| 2026-05-01 07:37 | 50.99150 | 7.43357 | 39369 ft | 484 kts | 133° |
| 2026-05-01 07:38 | 50.94457 | 7.51040 | 39372 ft | 484 kts | 133° |
| 2026-05-01 07:39 | 50.87454 | 7.62460 | 39368 ft | 484 kts | 133° |
| 2026-05-01 07:39 | 50.80437 | 7.73849 | 39365 ft | 484 kts | 134° |
| 2026-05-01 07:40 | 50.75735 | 7.81454 | 39362 ft | 484 kts | 134° |
| 2026-05-01 07:40 | 50.71021 | 7.89052 | 39360 ft | 484 kts | 134° |
| 2026-05-01 07:41 | 50.66300 | 7.96639 | 39358 ft | 484 kts | 133° |
| 2026-05-01 07:42 | 50.59225 | 8.07968 | 39360 ft | 485 kts | 134° |
| 2026-05-01 07:42 | 50.54483 | 8.15530 | 39367 ft | 485 kts | 134° |
| 2026-05-01 07:43 | 50.49735 | 8.23082 | 39373 ft | 485 kts | 134° |
| 2026-05-01 07:43 | 50.42623 | 8.34350 | 39388 ft | 486 kts | 134° |
| 2026-05-01 07:44 | 50.33497 | 8.48729 | 39394 ft | 487 kts | 134° |
| 2026-05-01 07:45 | 50.28733 | 8.56205 | 39397 ft | 487 kts | 134° |
| 2026-05-01 07:45 | 50.23945 | 8.63694 | 39396 ft | 487 kts | 134° |
| 2026-05-01 07:46 | 50.19127 | 8.71209 | 39401 ft | 488 kts | 134° |
| 2026-05-01 07:47 | 50.11936 | 8.82382 | 39403 ft | 488 kts | 134° |
| 2026-05-01 07:47 | 50.07140 | 8.89806 | 39189 ft | 483 kts | 134° |
| 2026-05-01 07:47 | 50.04747 | 8.93502 | 38517 ft | 482 kts | 134° |
| 2026-05-01 07:48 | 49.99958 | 9.00883 | 36838 ft | 485 kts | 134° |
| 2026-05-01 07:48 | 49.97560 | 9.04570 | 35928 ft | 487 kts | 134° |
| 2026-05-01 07:48 | 49.95143 | 9.08280 | 35029 ft | 489 kts | 134° |
| 2026-05-01 07:49 | 49.92709 | 9.12012 | 34112 ft | 491 kts | 133° |
| 2026-05-01 07:49 | 49.87853 | 9.19441 | 33395 ft | 496 kts | 133° |
| 2026-05-01 07:50 | 49.82902 | 9.26994 | 33381 ft | 500 kts | 133° |
| 2026-05-01 07:50 | 49.75505 | 9.38229 | 33381 ft | 499 kts | 134° |
| 2026-05-01 07:51 | 49.70545 | 9.45735 | 33378 ft | 499 kts | 134° |
| 2026-05-01 07:52 | 49.63088 | 9.56978 | 33372 ft | 499 kts | 134° |
| 2026-05-01 07:52 | 49.58142 | 9.64408 | 33365 ft | 499 kts | 134° |
| 2026-05-01 07:53 | 49.50678 | 9.75581 | 33368 ft | 498 kts | 133° |
| 2026-05-01 07:53 | 49.45701 | 9.83002 | 33370 ft | 498 kts | 133° |
| 2026-05-01 07:55 | 49.33226 | 10.01504 | 33364 ft | 498 kts | 133° |
| 2026-05-01 07:56 | 49.20781 | 10.19826 | 33372 ft | 498 kts | 133° |
| 2026-05-01 07:57 | 49.13277 | 10.30808 | 33317 ft | 490 kts | 133° |
| 2026-05-01 07:57 | 49.08497 | 10.37768 | 32756 ft | 468 kts | 133° |
| 2026-05-01 07:58 | 49.03824 | 10.44570 | 31549 ft | 460 kts | 133° |
| 2026-05-01 07:58 | 48.99225 | 10.51242 | 30399 ft | 452 kts | 133° |
| 2026-05-01 07:59 | 48.94708 | 10.57775 | 29146 ft | 442 kts | 133° |
| 2026-05-01 07:59 | 48.90292 | 10.64145 | 27935 ft | 433 kts | 133° |
| 2026-05-01 08:00 | 48.81738 | 10.76443 | 25550 ft | 418 kts | 133° |
| 2026-05-01 08:01 | 48.75451 | 10.85442 | 23774 ft | 409 kts | 133° |
| 2026-05-01 08:01 | 48.73393 | 10.88379 | 23091 ft | 406 kts | 133° |
| 2026-05-01 08:01 | 48.71282 | 10.91085 | 22438 ft | 406 kts | 143° |
| 2026-05-01 08:02 | 48.66133 | 10.94638 | 21159 ft | 403 kts | 154° |
| 2026-05-01 08:02 | 48.63553 | 10.96253 | 20520 ft | 400 kts | 154° |
| 2026-05-01 08:03 | 48.58452 | 10.99434 | 19310 ft | 394 kts | 154° |
| 2026-05-01 08:03 | 48.55921 | 11.01005 | 18718 ft | 391 kts | 154° |
| 2026-05-01 08:03 | 48.50939 | 11.04090 | 17403 ft | 384 kts | 154° |
| 2026-05-01 08:04 | 48.46052 | 11.07146 | 16137 ft | 377 kts | 154° |
| 2026-05-01 08:04 | 48.41298 | 11.10149 | 14935 ft | 371 kts | 154° |
| 2026-05-01 08:05 | 48.36561 | 11.13172 | 13687 ft | 365 kts | 154° |
| 2026-05-01 08:05 | 48.34233 | 11.14667 | 13026 ft | 362 kts | 154° |
| 2026-05-01 08:05 | 48.31936 | 11.16145 | 12388 ft | 358 kts | 154° |
| 2026-05-01 08:06 | 48.27386 | 11.19072 | 11151 ft | 351 kts | 154° |
| 2026-05-01 08:06 | 48.22977 | 11.21924 | 9891 ft | 339 kts | 154° |
| 2026-05-01 08:07 | 48.18758 | 11.24652 | 8604 ft | 325 kts | 154° |
| 2026-05-01 08:07 | 48.14794 | 11.27600 | 7372 ft | 312 kts | 137° |
| 2026-05-01 08:08 | 48.13473 | 11.30123 | 6809 ft | 309 kts | 115° |
| 2026-05-01 08:08 | 48.13293 | 11.36380 | 5533 ft | 311 kts | 70° |
| 2026-05-01 08:09 | 48.16302 | 11.40896 | 4321 ft | 321 kts | 25° |
| 2026-05-01 08:09 | 48.18232 | 11.41450 | 4056 ft | 316 kts | 3° |
| 2026-05-01 08:09 | 48.20353 | 11.41044 | 4006 ft | 295 kts | 354° |
| 2026-05-01 08:10 | 48.24032 | 11.40077 | 4010 ft | 260 kts | 354° |
| 2026-05-01 08:10 | 48.27401 | 11.39774 | 3990 ft | 225 kts | 27° |
| 2026-05-01 08:11 | 48.29503 | 11.42672 | 3974 ft | 200 kts | 54° |
| 2026-05-01 08:11 | 48.31242 | 11.45800 | 4006 ft | 191 kts | 62° |
| 2026-05-01 08:12 | 48.32050 | 11.49426 | 3996 ft | 185 kts | 83° |
| 2026-05-01 08:12 | 48.32227 | 11.51347 | 3991 ft | 187 kts | 85° |
| 2026-05-01 08:12 | 48.32522 | 11.55128 | 3997 ft | 178 kts | 84° |
| 2026-05-01 08:13 | 48.32651 | 11.56874 | 4006 ft | 167 kts | 86° |
| 2026-05-01 08:13 | 48.32790 | 11.58581 | 3797 ft | 167 kts | 85° |
| 2026-05-01 08:13 | 48.33051 | 11.61754 | 3340 ft | 147 kts | 85° |
| 2026-05-01 08:14 | 48.33160 | 11.63279 | 3143 ft | 145 kts | 87° |
| 2026-05-01 08:14 | 48.33261 | 11.64707 | 2954 ft | 130 kts | 85° |
| 2026-05-01 08:14 | 48.33376 | 11.66024 | 2803 ft | 127 kts | 86° |
| 2026-05-01 08:14 | 48.33462 | 11.67329 | 2599 ft | 124 kts | 85° |
| 2026-05-01 08:15 | 48.33563 | 11.68610 | 2421 ft | 124 kts | 85° |
| 2026-05-01 08:15 | 48.33766 | 11.71204 | 2062 ft | 126 kts | 86° |
| 2026-05-01 08:15 | 48.33849 | 11.72514 | 1882 ft | 127 kts | 85° |
| 2026-05-01 08:16 | 48.33970 | 11.73795 | 1722 ft | 124 kts | 83° |
| 2026-05-01 08:16 | 48.34073 | 11.75068 | 1539 ft | 124 kts | 84° |
| 2026-05-01 08:16 | 48.34165 | 11.76310 | 1469 ft | 109 kts | 85° |
| 2026-05-01 08:16 | 48.34230 | 11.77230 | 1472 ft | 69 kts | 83° |
| 2026-05-01 08:17 | 48.34274 | 11.77808 | 1469 ft | 46 kts | 83° |
| 2026-05-01 08:17 | 48.34303 | 11.78194 | 1472 ft | 31 kts | 83° |
| 2026-05-01 08:17 | 48.34326 | 11.78488 | 1468 ft | 26 kts | 83° |
| 2026-05-01 08:17 | 48.34348 | 11.78786 | 1465 ft | 30 kts | 83° |
| 2026-05-01 08:18 | 48.34396 | 11.79061 | 1457 ft | 25 kts | 56° |
| 2026-05-01 08:18 | 48.34577 | 11.79439 | 1461 ft | 20 kts | 53° |
| 2026-05-01 08:19 | 48.34709 | 11.79699 | 1465 ft | 13 kts | 29° |
| 2026-05-01 08:19 | 48.34753 | 11.79710 | 1470 ft | 6 kts | 356° |
| 2026-05-01 08:19 | 48.34855 | 11.79696 | 1468 ft | 17 kts | 354° |
| 2026-05-01 08:19 | 48.34983 | 11.79677 | 1471 ft | 20 kts | 354° |
| 2026-05-01 08:20 | 48.35100 | 11.79694 | 1471 ft | 8 kts | 65° |
| 2026-05-01 08:20 | 48.35108 | 11.79817 | 1472 ft | 20 kts | 85° |
| 2026-05-01 08:20 | 48.35123 | 11.80024 | 1465 ft | 19 kts | 84° |
| 2026-05-01 08:20 | 48.35153 | 11.80174 | 1464 ft | 11 kts | 22° |
| 2026-05-01 08:21 | 48.35203 | 11.80188 | 1468 ft | 12 kts | 0° |
| 2026-05-01 08:21 | 48.35248 | 11.80143 | 1469 ft | 9 kts | 278° |
| 2026-05-01 08:21 | 48.35247 | 11.80070 | 1472 ft | 1 kts | 262° |
| 2026-05-01 08:21 | 48.35244 | 11.80035 | 1472 ft | 0 kts | 262° |